Time;durP1;ratioP1;P1;durP2;ratioP2;P2;SDS_P1;SDS_P2;PMS_P1;PMS_P2;Temp;Humidity;BMP_temperature;BMP_pressure;BME280_temperature;BME280_humidity;BME280_pressure;Samples;Min_cycle;Max_cycle;Signal;HPM_P1;HPM_P2
2021/11/19 00:00:59;;;;;;;18.95;9.23;;;;;;;7.11;66.88;101248.75;10385123;28;20088;-65
2021/11/19 00:06:01;;;;;;;26.30;8.82;;;;;;;7.08;67.03;101243.66;10385003;28;20919;-64
2021/11/19 00:11:06;;;;;;;22.75;9.65;;;;;;;7.13;66.92;101244.38;10384363;28;20053;-64
2021/11/19 00:16:09;;;;;;;28.52;10.50;;;;;;;7.14;67.10;101246.94;10384161;28;20148;-64
2021/11/19 00:21:11;;;;;;;27.20;12.13;;;;;;;7.19;67.07;101234.69;10385306;28;20164;-64
2021/11/19 00:26:15;;;;;;;28.10;11.23;;;;;;;7.26;66.98;101235.38;10385101;28;20268;-64
2021/11/19 00:31:18;;;;;;;35.25;13.63;;;;;;;7.28;67.02;101233.59;10383324;28;20053;-64
2021/11/19 00:36:23;;;;;;;22.48;8.50;;;;;;;7.22;67.19;101245.91;10383973;28;20048;-64
2021/11/19 00:41:27;;;;;;;24.98;8.88;;;;;;;7.25;67.14;101235.41;10383826;28;20634;-64
2021/11/19 00:46:29;;;;;;;23.70;9.18;;;;;;;7.21;67.49;101229.44;10382674;28;20051;-63
2021/11/19 00:51:34;;;;;;;20.02;8.95;;;;;;;7.28;67.40;101220.59;10382653;28;20046;-64
2021/11/19 00:56:51;;;;;;;25.38;9.63;;;;;;;7.15;67.84;101224.38;10383816;28;20418;-64
2021/11/19 01:02:00;;;;;;;29.23;10.07;;;;;;;7.09;68.22;101221.94;10383662;28;20567;-64
2021/11/19 01:07:05;;;;;;;28.13;10.20;;;;;;;7.10;68.10;101236.66;10383907;28;20041;-64
2021/11/19 01:12:10;;;;;;;29.40;9.77;;;;;;;7.13;68.17;101233.97;10383735;28;20049;-64
2021/11/19 01:17:17;;;;;;;29.45;11.98;;;;;;;7.26;67.88;101238.00;10383816;28;20119;-64
2021/11/19 01:22:23;;;;;;;28.20;11.55;;;;;;;7.41;67.64;101240.19;10382686;28;20057;-64
2021/11/19 01:27:25;;;;;;;30.35;10.77;;;;;;;7.50;67.35;101239.09;10390275;28;20077;-64
2021/11/19 01:32:27;;;;;;;30.42;11.55;;;;;;;7.61;67.08;101237.91;10391065;28;20056;-64
2021/11/19 01:37:29;;;;;;;26.65;10.20;;;;;;;7.63;67.03;101233.50;10391226;28;20167;-64
2021/11/19 01:42:41;;;;;;;33.33;12.60;;;;;;;7.69;66.86;101250.72;10390855;28;21044;-64
2021/11/19 01:47:47;;;;;;;31.58;11.10;;;;;;;7.75;66.79;101251.41;10390503;28;20134;-64
2021/11/19 01:52:55;;;;;;;24.92;10.10;;;;;;;7.76;66.83;101252.25;10389654;28;20307;-64
2021/11/19 01:58:13;;;;;;;27.45;10.13;;;;;;;7.78;66.57;101251.31;10391273;28;20054;-64
2021/11/19 02:03:17;;;;;;;24.67;9.07;;;;;;;7.66;67.09;101241.25;10389980;28;20521;-64
2021/11/19 02:08:22;;;;;;;23.65;9.45;;;;;;;7.60;67.15;101238.81;10390140;28;20045;-64
2021/11/19 02:13:30;;;;;;;22.55;9.45;;;;;;;7.64;67.31;101239.56;10389218;28;20140;-64
2021/11/19 02:18:43;;;;;;;30.67;10.23;;;;;;;7.64;67.30;101244.78;10389388;28;20148;-64
2021/11/19 02:23:54;;;;;;;20.02;8.98;;;;;;;7.71;67.26;101241.13;10389752;28;20459;-64
2021/11/19 02:28:57;;;;;;;24.00;9.20;;;;;;;7.64;67.19;101235.22;10389127;28;20045;-64
2021/11/19 02:34:03;;;;;;;26.55;9.73;;;;;;;7.51;67.61;101228.63;10388988;28;20497;-64
2021/11/19 02:39:11;;;;;;;20.73;8.25;;;;;;;7.44;68.05;101236.66;10387414;28;20059;-64
2021/11/19 02:44:20;;;;;;;25.50;8.98;;;;;;;7.51;68.03;101236.44;10386887;28;20461;-64
2021/11/19 02:49:23;;;;;;;19.00;7.90;;;;;;;7.51;67.86;101244.25;10389030;28;20049;-64
2021/11/19 02:54:30;;;;;;;18.42;8.43;;;;;;;7.51;68.17;101240.81;10388034;28;20056;-64
2021/11/19 02:59:33;;;;;;;21.25;8.95;;;;;;;7.70;67.66;101240.28;10387092;28;20499;-64
2021/11/19 03:04:45;;;;;;;18.52;8.30;;;;;;;7.77;67.57;101244.41;10394289;28;20501;-64
2021/11/19 03:09:54;;;;;;;17.10;8.05;;;;;;;7.81;67.56;101251.22;10394865;28;20401;-64
2021/11/19 03:14:58;;;;;;;21.60;8.60;;;;;;;7.86;67.50;101246.75;10393475;28;20144;-64
2021/11/19 03:20:00;;;;;;;22.85;8.15;;;;;;;7.84;67.57;101242.47;10394524;28;20049;-64
2021/11/19 03:25:04;;;;;;;19.40;8.40;;;;;;;7.79;67.71;101253.03;10394233;28;20061;-64
2021/11/19 03:30:08;;;;;;;26.65;8.93;;;;;;;7.74;67.87;101254.91;10394153;28;20490;-64
2021/11/19 03:35:14;;;;;;;25.02;9.30;;;;;;;7.66;68.21;101246.47;10392346;28;20450;-64
2021/11/19 03:40:25;;;;;;;17.85;8.80;;;;;;;7.67;68.26;101255.13;10393326;28;20119;-64
2021/11/19 03:45:31;;;;;;;24.23;8.82;;;;;;;7.77;68.11;101260.03;10393580;28;20041;-63
2021/11/19 03:50:41;;;;;;;21.48;9.63;;;;;;;7.66;68.79;101248.19;10392886;28;20060;-64
2021/11/19 03:55:46;;;;;;;22.30;9.73;;;;;;;7.69;68.60;101261.16;10391549;28;20139;-64
2021/11/19 04:00:55;;;;;;;23.63;9.27;;;;;;;7.67;68.93;101252.53;10392622;28;20056;-64
2021/11/19 04:05:57;;;;;;;24.38;10.35;;;;;;;7.68;68.79;101255.09;10387652;28;20124;-64
2021/11/19 04:10:59;;;;;;;23.23;10.15;;;;;;;7.62;69.29;101250.03;10386207;28;20055;-64
2021/11/19 04:16:06;;;;;;;24.95;10.45;;;;;;;7.65;69.45;101255.16;10385694;28;20136;-64
2021/11/19 04:21:08;;;;;;;20.90;9.82;;;;;;;7.78;69.08;101259.13;10385746;28;20046;-64
2021/11/19 04:26:11;;;;;;;27.00;10.18;;;;;;;7.78;69.09;101259.13;10385355;28;20041;-64
2021/11/19 04:31:15;;;;;;;20.60;9.63;;;;;;;7.76;69.17;101250.50;10383776;28;20753;-63
2021/11/19 04:36:19;;;;;;;21.13;9.75;;;;;;;7.86;68.87;101251.97;10384831;28;20567;-64
2021/11/19 04:41:21;;;;;;;21.05;9.80;;;;;;;7.80;69.01;101252.13;10385745;28;20567;-64
2021/11/19 04:46:23;;;;;;;22.95;9.40;;;;;;;7.70;69.26;101253.28;10384576;28;20056;-64
2021/11/19 04:51:28;;;;;;;18.75;9.43;;;;;;;7.81;69.07;101243.41;10385300;28;20049;-64
2021/11/19 04:56:29;;;;;;;18.98;9.70;;;;;;;7.83;68.87;101246.00;10384915;28;20067;-65
2021/11/19 05:01:34;;;;;;;16.73;9.75;;;;;;;7.83;68.81;101243.41;10390185;28;20439;-64
2021/11/19 05:06:36;;;;;;;21.00;9.75;;;;;;;7.75;69.15;101240.16;10392526;28;20057;-65
2021/11/19 05:11:41;;;;;;;20.08;9.85;;;;;;;7.86;68.98;101240.69;10392821;28;20047;-64
2021/11/19 05:16:43;;;;;;;24.50;9.90;;;;;;;7.88;68.97;101250.19;10390477;28;20060;-64
2021/11/19 05:21:45;;;;;;;19.42;10.75;;;;;;;7.87;68.86;101248.47;10392519;28;20579;-64
2021/11/19 05:26:48;;;;;;;23.95;12.85;;;;;;;7.86;69.02;101243.28;10392362;28;20057;-65
2021/11/19 05:31:51;;;;;;;18.98;11.05;;;;;;;7.78;69.39;101250.47;10391714;28;20679;-64
2021/11/19 05:36:53;;;;;;;18.58;10.75;;;;;;;7.82;69.26;101252.94;10391827;28;20053;-64
2021/11/19 05:41:55;;;;;;;19.23;11.07;;;;;;;7.75;69.59;101256.59;10391612;28;20419;-65
2021/11/19 05:46:57;;;;;;;21.05;11.27;;;;;;;7.80;69.50;101259.94;10390378;28;20522;-65
2021/11/19 05:52:00;;;;;;;22.90;11.95;;;;;;;7.79;69.47;101258.22;10389903;28;20060;-65
2021/11/19 05:57:06;;;;;;;22.70;10.68;;;;;;;7.82;69.50;101258.16;10390946;28;20065;-65
2021/11/19 06:02:10;;;;;;;22.10;11.23;;;;;;;7.79;69.64;101257.41;10391467;28;20094;-65
2021/11/19 06:07:12;;;;;;;22.38;11.45;;;;;;;7.83;69.46;101257.25;10390655;28;20049;-65
2021/11/19 06:12:20;;;;;;;23.45;11.43;;;;;;;7.88;69.46;101259.72;10390562;28;20139;-65
2021/11/19 06:17:30;;;;;;;16.42;10.65;;;;;;;7.88;69.60;101263.19;10390305;28;20072;-65
2021/11/19 06:22:38;;;;;;;19.33;10.83;;;;;;;7.97;69.31;101259.50;10390799;28;20077;-65
2021/11/19 06:27:41;;;;;;;19.00;10.77;;;;;;;8.02;69.07;101255.00;10389921;28;20049;-65
2021/11/19 06:32:43;;;;;;;16.42;10.80;;;;;;;7.87;69.56;101263.25;10390320;28;20094;-65
2021/11/19 06:37:46;;;;;;;14.55;9.35;;;;;;;7.81;69.77;101261.66;10389295;28;20332;-65
2021/11/19 06:42:48;;;;;;;17.60;9.93;;;;;;;7.83;69.68;101261.63;10389198;28;20051;-64
2021/11/19 06:47:50;;;;;;;15.77;9.85;;;;;;;7.87;69.59;101265.84;10388785;28;20071;-65
2021/11/19 06:52:51;;;;;;;16.52;9.25;;;;;;;7.84;69.59;101277.22;10389875;28;20583;-65
2021/11/19 06:57:54;;;;;;;16.33;8.98;;;;;;;7.88;69.66;101276.22;10385635;28;20450;-65
2021/11/19 07:02:56;;;;;;;16.38;8.90;;;;;;;7.92;69.65;101290.00;10388844;28;20432;-66
2021/11/19 07:08:02;;;;;;;13.05;8.10;;;;;;;8.07;69.34;101296.56;10388740;28;20128;-65
2021/11/19 07:13:04;;;;;;;14.70;8.43;;;;;;;8.09;69.18;101289.53;10387221;28;20711;-65
2021/11/19 07:18:06;;;;;;;12.80;7.93;;;;;;;8.23;68.93;101290.03;10385030;28;20768;-65
2021/11/19 07:23:10;;;;;;;13.13;8.52;;;;;;;8.21;68.92;101294.44;10387489;28;20050;-65
2021/11/19 07:28:12;;;;;;;12.20;7.93;;;;;;;8.15;69.09;101300.69;10388468;28;20049;-65
2021/11/19 07:33:14;;;;;;;12.88;7.78;;;;;;;8.13;69.12;101309.44;10385151;28;20505;-65
2021/11/19 07:38:17;;;;;;;11.10;7.15;;;;;;;8.03;69.48;101309.69;10387005;28;20045;-65
2021/11/19 07:43:22;;;;;;;10.25;6.78;;;;;;;8.10;69.59;101314.72;10386871;28;20071;-65
2021/11/19 07:48:28;;;;;;;11.02;7.43;;;;;;;8.18;69.71;101313.63;10387720;28;20439;-65
2021/11/19 07:53:30;;;;;;;12.65;7.25;;;;;;;8.28;69.23;101324.66;10384792;28;20055;-66
2021/11/19 07:58:32;;;;;;;9.68;6.43;;;;;;;8.37;69.13;101329.59;10386244;28;20092;-65
2021/11/19 08:03:34;;;;;;;10.85;6.65;;;;;;;8.34;69.34;101324.50;10386416;28;20085;-65
2021/11/19 08:08:37;;;;;;;10.88;6.93;;;;;;;8.47;69.15;101320.59;10387355;28;20064;-65
2021/11/19 08:13:39;;;;;;;9.85;6.88;;;;;;;8.55;68.93;101316.03;10386244;28;20136;-65
2021/11/19 08:18:46;;;;;;;12.52;8.35;;;;;;;8.55;69.07;101323.84;10386172;28;20061;-64
2021/11/19 08:23:51;;;;;;;11.98;7.68;;;;;;;8.60;69.02;101329.78;10385850;28;20041;-65
2021/11/19 08:28:55;;;;;;;11.35;8.00;;;;;;;8.55;69.17;101331.66;10385367;28;20060;-65
2021/11/19 08:33:57;;;;;;;12.57;7.78;;;;;;;8.55;69.13;101324.72;10385381;28;20059;-65
2021/11/19 08:39:02;;;;;;;11.88;6.15;;;;;;;8.57;69.07;101325.53;10385246;28;20095;-65
2021/11/19 08:44:06;;;;;;;9.65;5.75;;;;;;;8.66;69.10;101317.44;10372963;28;20049;-77
2021/11/19 08:49:12;;;;;;;8.98;6.28;;;;;;;8.79;68.88;101320.53;10380689;28;20508;-77
2021/11/19 08:54:16;;;;;;;7.68;5.05;;;;;;;8.84;68.82;101308.19;10383579;28;20053;-78
2021/11/19 08:59:20;;;;;;;8.63;5.47;;;;;;;8.88;68.70;101306.31;10382623;28;20140;-78
2021/11/19 09:04:22;;;;;;;6.45;4.70;;;;;;;9.10;68.30;101309.97;10383128;28;20085;-78
2021/11/19 09:09:25;;;;;;;6.72;4.43;;;;;;;9.10;68.27;101313.44;10381804;28;20108;-78
2021/11/19 09:14:27;;;;;;;5.32;4.13;;;;;;;9.26;68.00;101321.66;10380899;28;20160;-79
2021/11/19 09:19:58;;;;;;;7.38;3.80;;;;;;;9.16;67.96;101318.47;10382543;28;20085;-78
2021/11/19 09:25:09;;;;;;;6.03;3.70;;;;;;;9.22;67.86;101318.25;10382535;28;20525;-78
2021/11/19 09:30:26;;;;;;;5.00;3.30;;;;;;;9.36;67.71;101321.28;10381322;28;20632;-77
2021/11/19 09:35:31;;;;;;;7.90;3.58;;;;;;;9.52;67.40;101317.25;10382238;28;20096;-77
2021/11/19 09:40:41;;;;;;;5.05;3.30;;;;;;;9.76;67.12;101317.38;10380863;28;20053;-77
2021/11/19 09:46:21;;;;;;;5.22;3.47;;;;;;;9.61;66.73;101326.53;10382648;28;20433;-78
2021/11/19 09:51:41;;;;;;;5.35;3.53;;;;;;;9.72;66.58;101328.84;10348605;28;20052;-77
2021/11/19 09:57:11;;;;;;;6.15;3.83;;;;;;;9.72;66.65;101323.59;10389673;28;20053;-77
2021/11/19 10:02:34;;;;;;;6.82;3.10;;;;;;;9.81;66.26;101312.84;10389483;28;20053;-78
2021/11/19 10:07:38;;;;;;;6.88;3.10;;;;;;;10.00;66.23;101313.91;10389733;28;20434;-77
2021/11/19 10:13:00;;;;;;;4.78;2.72;;;;;;;9.86;66.21;101313.53;10390161;28;20699;-78
2021/11/19 10:18:15;;;;;;;5.93;2.60;;;;;;;9.99;65.99;101302.59;10389856;28;20421;-77
2021/11/19 10:23:28;;;;;;;4.65;2.67;;;;;;;10.12;65.75;101314.31;10388411;28;20753;-76
2021/11/19 10:28:45;;;;;;;4.93;2.60;;;;;;;10.09;65.82;101313.59;10390131;28;20060;-76
2021/11/19 10:34:07;;;;;;;5.72;2.50;;;;;;;9.98;66.08;101306.13;10389417;28;20136;-76
2021/11/19 10:39:33;;;;;;;4.70;2.78;;;;;;;9.92;66.46;101303.72;10388404;28;20390;-76
2021/11/19 10:45:07;;;;;;;4.43;2.80;;;;;;;9.78;66.87;101292.91;10389519;28;20172;-75
2021/11/19 10:50:43;;;;;;;6.25;2.60;;;;;;;9.95;66.96;101287.09;10389126;28;20538;-76
2021/11/19 10:55:48;;;;;;;4.40;2.67;;;;;;;10.16;66.59;101286.28;10376203;28;20090;-76
2021/11/19 11:01:02;;;;;;;5.07;2.42;;;;;;;10.08;66.74;101288.34;10388184;28;20053;-76
2021/11/19 11:06:07;;;;;;;4.90;2.63;;;;;;;10.04;66.91;101287.59;10385663;28;20060;-77
2021/11/19 11:11:13;;;;;;;5.28;2.80;;;;;;;9.93;67.38;101292.34;10388027;28;20060;-78
2021/11/19 11:16:17;;;;;;;5.43;2.50;;;;;;;10.05;67.39;101291.09;10387341;28;20596;-76
2021/11/19 11:21:35;;;;;;;4.18;2.28;;;;;;;10.14;67.34;101286.38;10386813;28;20524;-75
2021/11/19 11:26:55;;;;;;;3.25;2.17;;;;;;;10.28;66.67;101285.84;10385966;28;20037;-76
2021/11/19 11:32:20;;;;;;;4.47;2.13;;;;;;;10.37;66.79;101277.66;10387214;28;20131;-76
2021/11/19 11:37:21;;;;;;;3.50;2.10;;;;;;;10.44;66.66;101272.13;10387102;28;20157;-77
2021/11/19 11:42:27;;;;;;;4.78;2.20;;;;;;;10.52;66.48;101272.69;10385780;28;20506;-76
2021/11/19 11:47:58;;;;;;;3.67;2.00;;;;;;;10.61;66.20;101266.28;10384195;28;20144;-78
2021/11/19 11:53:29;;;;;;;4.10;2.10;;;;;;;10.54;66.25;101256.97;10386941;28;20060;-74
2021/11/19 11:58:46;;;;;;;4.37;2.00;;;;;;;10.64;66.32;101247.00;10386468;28;20055;-75
2021/11/19 12:04:07;;;;;;;2.45;1.65;;;;;;;10.97;65.48;101249.09;10385909;28;20136;-74
2021/11/19 12:09:19;;;;;;;4.13;2.20;;;;;;;10.95;65.17;101245.69;10385602;28;20399;-75
2021/11/19 12:14:50;;;;;;;5.55;2.40;;;;;;;10.87;64.85;101239.91;10385508;28;20172;-75
2021/11/19 12:20:14;;;;;;;6.10;4.20;;;;;;;10.84;65.22;101233.97;10366343;28;20505;-75
2021/11/19 12:25:42;;;;;;;4.95;1.90;;;;;;;10.88;65.44;101228.56;10383401;28;20041;-74
2021/11/19 12:31:12;;;;;;;4.15;2.15;;;;;;;10.95;64.88;101226.56;10384212;28;20053;-75
2021/11/19 12:36:21;;;;;;;3.20;2.00;;;;;;;10.98;64.44;101236.88;10383306;28;20059;-75
2021/11/19 12:41:29;;;;;;;4.95;2.33;;;;;;;11.19;64.40;101223.78;10385114;28;20067;-75
2021/11/19 12:46:33;;;;;;;3.63;1.75;;;;;;;11.15;64.35;101221.38;10385784;28;20360;-75
2021/11/19 12:52:10;;;;;;;6.32;2.40;;;;;;;11.17;63.18;101206.44;10370045;28;20049;-75
2021/11/19 12:57:50;;;;;;;4.30;2.65;;;;;;;11.03;64.46;101201.72;10393556;28;20052;-76
2021/11/19 13:03:20;;;;;;;2.50;1.67;;;;;;;11.07;63.94;101199.91;10295639;28;20448;-76
2021/11/19 13:08:43;;;;;;;4.05;1.73;;;;;;;10.99;64.14;101200.16;10369966;28;20050;-75
2021/11/19 13:13:45;;;;;;;4.93;1.50;;;;;;;10.95;64.28;101200.38;10384381;28;20134;-76
2021/11/19 13:18:50;;;;;;;5.22;2.25;;;;;;;10.91;64.31;101199.63;10383553;28;20061;-75
2021/11/19 13:24:15;;;;;;;2.90;1.70;;;;;;;10.80;64.47;101199.22;10391837;28;20629;-76
2021/11/19 13:29:35;;;;;;;4.45;1.77;;;;;;;10.77;64.61;101204.56;10389573;28;20063;-72
2021/11/19 13:34:50;;;;;;;4.43;1.93;;;;;;;10.69;65.15;101203.16;10391414;28;20208;-72
2021/11/19 13:39:58;;;;;;;11.38;2.10;;;;;;;10.76;65.20;101189.81;10391795;28;20057;-76
2021/11/19 13:45:09;;;;;;;5.22;1.50;;;;;;;10.71;65.28;101199.59;10392093;28;20052;-75
2021/11/19 13:50:25;;;;;;;;;;;;;;;10.23;67.01;101204.13;10392654;28;20045;-73
2021/11/19 13:55:32;;;;;;;5.70;2.10;;;;;;;10.45;66.58;101197.16;10390507;28;19972;-73
2021/11/19 14:01:01;;;;;;;4.85;2.10;;;;;;;10.33;66.77;101198.50;10390591;28;20053;-74
2021/11/19 14:06:13;;;;;;;10.27;2.50;;;;;;;10.28;67.09;101202.19;10390869;28;20053;-72
2021/11/19 14:11:19;;;;;;;7.85;2.28;;;;;;;10.19;67.16;101197.31;10389053;28;20466;-75
2021/11/19 14:16:33;;;;;;;4.15;1.95;;;;;;;10.13;67.52;101194.94;10388301;28;20491;-76
2021/11/19 14:21:57;;;;;;;5.50;2.15;;;;;;;10.09;67.52;101203.81;10385690;28;20365;-77
2021/11/19 14:27:13;;;;;;;4.68;2.42;;;;;;;10.04;67.81;101198.75;10388687;28;20076;-73
2021/11/19 14:32:35;;;;;;;4.47;2.13;;;;;;;10.05;67.53;101207.44;10386578;28;20263;-73
2021/11/19 14:38:04;;;;;;;7.47;2.60;;;;;;;10.14;67.55;101196.63;10387242;28;20425;-75
2021/11/19 14:43:12;;;;;;;6.45;2.85;;;;;;;10.03;67.69;101193.56;10385700;28;20053;-75
2021/11/19 14:48:53;;;;;;;5.40;2.92;;;;;;;10.06;67.38;101190.84;10386215;28;20049;-74
2021/11/19 14:54:03;;;;;;;6.97;2.72;;;;;;;10.11;67.19;101183.69;10384709;28;20057;-76
2021/11/19 14:59:13;;;;;;;4.47;2.78;;;;;;;10.21;66.85;101185.91;10385587;28;20347;-76
2021/11/19 15:04:19;;;;;;;4.25;2.45;;;;;;;10.19;66.83;101184.25;10385134;28;20470;-75
2021/11/19 15:09:27;;;;;;;3.88;2.45;;;;;;;10.09;67.08;101183.75;10383752;28;20522;-75
2021/11/19 15:14:50;;;;;;;5.07;2.80;;;;;;;10.09;67.03;101182.88;10389192;28;20073;-75
2021/11/19 15:20:00;;;;;;;4.63;2.78;;;;;;;10.03;67.17;101190.97;10388743;28;20049;-75
2021/11/19 15:25:35;;;;;;;5.65;3.47;;;;;;;9.80;67.54;101204.88;10389230;28;20045;-75
2021/11/19 15:31:14;;;;;;;4.07;2.60;;;;;;;9.95;67.17;101195.63;10388314;28;20064;-75
2021/11/19 15:36:36;;;;;;;4.10;2.75;;;;;;;9.94;67.17;101199.13;10388078;28;20467;-74
2021/11/19 15:41:46;;;;;;;5.32;2.70;;;;;;;9.98;67.27;101190.28;10388030;28;20049;-74
2021/11/19 15:46:49;;;;;;;5.00;2.77;;;;;;;10.02;67.02;101197.94;10386242;28;20136;-74
2021/11/19 15:52:06;;;;;;;4.75;2.70;;;;;;;9.98;67.11;101198.97;10386519;28;20049;-74
2021/11/19 15:57:14;;;;;;;5.72;2.22;;;;;;;10.08;66.92;101202.09;10384950;28;20494;-74
2021/11/19 16:02:46;;;;;;;4.18;2.45;;;;;;;9.95;66.99;101198.25;10386311;28;20197;-66
2021/11/19 16:07:59;;;;;;;4.25;2.47;;;;;;;9.88;67.23;101201.97;10384627;28;20045;-66
2021/11/19 16:13:26;;;;;;;4.40;2.53;;;;;;;9.79;67.30;101207.56;10384839;28;20132;-66
2021/11/19 16:18:32;;;;;;;3.78;2.67;;;;;;;9.91;67.06;101210.53;10383269;28;20049;-66
2021/11/19 16:23:35;;;;;;;4.18;2.63;;;;;;;9.86;67.17;101204.66;10385902;28;20045;-65
2021/11/19 16:28:37;;;;;;;4.88;2.75;;;;;;;9.86;67.23;101204.66;10384176;28;20046;-65
2021/11/19 16:33:39;;;;;;;3.88;2.72;;;;;;;9.86;67.27;101214.25;10384647;28;20053;-65
2021/11/19 16:38:41;;;;;;;5.35;2.42;;;;;;;9.92;66.99;101212.25;10382630;28;20059;-66
2021/11/19 16:43:44;;;;;;;5.32;2.75;;;;;;;9.90;67.00;101211.47;10383438;28;20487;-66
2021/11/19 16:48:47;;;;;;;6.28;3.03;;;;;;;9.89;67.02;101214.16;10384742;28;20143;-66
2021/11/19 16:54:06;;;;;;;12.15;6.00;;;;;;;9.79;67.32;101215.38;10384276;28;20120;-65
2021/11/19 16:59:08;;;;;;;22.00;12.05;;;;;;;9.81;67.22;101218.81;10384023;28;20057;-65
2021/11/19 17:04:11;;;;;;;5.70;3.90;;;;;;;9.79;67.19;101212.78;10381564;28;20091;-66
2021/11/19 17:09:16;;;;;;;5.45;3.90;;;;;;;9.83;67.18;101223.03;10384861;28;20064;-65
2021/11/19 17:14:20;;;;;;;7.72;4.25;;;;;;;9.90;66.79;101216.69;10381593;28;20172;-65
2021/11/19 17:19:22;;;;;;;8.32;5.35;;;;;;;9.88;66.82;101228.09;10384097;28;20049;-65
2021/11/19 17:24:25;;;;;;;12.40;7.05;;;;;;;9.87;67.14;101218.56;10383656;28;20455;-65
2021/11/19 17:29:35;;;;;;;15.30;7.18;;;;;;;9.92;66.76;101230.56;10383674;28;20037;-65
2021/11/19 17:34:36;;;;;;;22.20;9.40;;;;;;;9.85;67.11;101223.00;10383100;28;20144;-65
2021/11/19 17:39:40;;;;;;;8.85;5.88;;;;;;;9.98;66.69;101219.03;10380755;28;20772;-65
2021/11/19 17:44:43;;;;;;;10.70;5.80;;;;;;;10.08;66.38;101225.59;10379320;28;20056;-65
2021/11/19 17:49:46;;;;;;;5.70;4.30;;;;;;;9.99;66.39;101229.41;10382433;28;20573;-65
2021/11/19 17:54:48;;;;;;;5.38;3.67;;;;;;;9.99;66.43;101233.81;10379619;28;20206;-65
2021/11/19 17:59:50;;;;;;;6.45;3.70;;;;;;;9.97;66.41;101225.16;10381145;28;20056;-65
2021/11/19 18:04:53;;;;;;;7.50;4.43;;;;;;;9.87;66.75;101223.81;10381873;28;20049;-65
2021/11/19 18:09:55;;;;;;;9.05;4.00;;;;;;;9.88;66.81;101212.44;10388203;28;20223;-65
2021/11/19 18:15:00;;;;;;;10.18;5.95;;;;;;;9.84;66.83;101213.44;10388969;28;20544;-65
2021/11/19 18:20:07;;;;;;;9.75;6.63;;;;;;;9.88;66.68;101215.91;10387372;28;20321;-65
2021/11/19 18:25:12;;;;;;;9.98;6.60;;;;;;;9.84;66.80;101218.66;10388315;28;20048;-64
2021/11/19 18:30:22;;;;;;;11.45;6.40;;;;;;;9.77;67.05;101219.81;10387367;28;20068;-64
2021/11/19 18:35:25;;;;;;;10.67;6.20;;;;;;;9.73;67.05;101224.28;10387486;28;20056;-65
2021/11/19 18:40:34;;;;;;;11.30;7.28;;;;;;;9.78;67.04;101224.13;10388227;28;20423;-65
2021/11/19 18:45:36;;;;;;;13.45;8.13;;;;;;;9.83;66.88;101223.03;10388280;28;20469;-65
2021/11/19 18:50:39;;;;;;;17.20;7.40;;;;;;;9.79;66.96;101223.22;10386719;28;20057;-65
2021/11/19 18:55:43;;;;;;;31.10;17.33;;;;;;;9.76;66.94;101226.78;10386579;28;20048;-65
2021/11/19 19:00:53;;;;;;;32.35;20.92;;;;;;;9.81;66.91;101237.09;10386309;28;20057;-65
2021/11/19 19:05:55;;;;;;;10.02;7.70;;;;;;;9.77;66.89;101231.09;10383156;28;20131;-65
2021/11/19 19:10:59;;;;;;;13.77;10.55;;;;;;;9.83;66.82;101243.94;10384313;28;20144;-65
2021/11/19 19:16:04;;;;;;;9.35;6.75;;;;;;;9.81;66.74;101237.09;10384239;28;20136;-65
2021/11/19 19:21:10;;;;;;;9.00;7.00;;;;;;;9.79;66.75;101237.13;10383347;28;20061;-65
2021/11/19 19:26:14;;;;;;;8.77;6.03;;;;;;;9.79;66.85;101238.91;10386548;28;20060;-65
2021/11/19 19:31:23;;;;;;;10.88;7.35;;;;;;;9.76;66.84;101224.19;10386413;28;20084;-65
2021/11/19 19:37:04;;;;;;;9.75;6.68;;;;;;;9.79;66.57;101225.84;10385946;28;20175;-64
2021/11/19 19:42:11;;;;;;;10.68;7.88;;;;;;;9.87;66.62;101223.81;10386842;28;20075;-64
2021/11/19 19:47:14;;;;;;;12.60;7.70;;;;;;;9.86;66.54;101225.56;10387181;28;20140;-64
2021/11/19 19:52:16;;;;;;;9.02;5.75;;;;;;;9.88;66.50;101225.50;10386480;28;20136;-65
2021/11/19 19:57:20;;;;;;;9.55;7.03;;;;;;;9.85;66.66;101228.22;10386762;28;20288;-65
2021/11/19 20:02:24;;;;;;;10.85;7.43;;;;;;;9.85;66.43;101226.44;10384492;28;20429;-65
2021/11/19 20:07:26;;;;;;;8.80;6.93;;;;;;;9.77;66.68;101228.47;10386354;28;20045;-65
2021/11/19 20:12:30;;;;;;;11.93;6.53;;;;;;;9.80;66.66;101224.91;10385734;28;20508;-65
2021/11/19 20:17:35;;;;;;;11.05;6.68;;;;;;;9.85;66.47;101226.44;10385422;28;20049;-65
2021/11/19 20:22:37;;;;;;;10.18;7.35;;;;;;;9.88;66.29;101233.34;10385383;28;20744;-65
2021/11/19 20:27:47;;;;;;;9.90;6.40;;;;;;;9.92;66.23;101241.00;10384318;28;20494;-64
2021/11/19 20:32:50;;;;;;;11.18;7.00;;;;;;;9.90;66.16;101236.75;10385208;28;20049;-65
2021/11/19 20:37:52;;;;;;;7.90;6.03;;;;;;;9.82;66.46;101238.78;10385056;28;20055;-65
2021/11/19 20:42:54;;;;;;;7.82;6.07;;;;;;;9.76;66.43;101239.84;10385489;28;20057;-65
2021/11/19 20:47:56;;;;;;;9.43;5.93;;;;;;;9.76;66.57;101246.84;10384029;28;20415;-64
2021/11/19 20:53:02;;;;;;;11.25;7.40;;;;;;;9.77;66.44;101244.16;10382391;28;20053;-65
2021/11/19 20:58:06;;;;;;;8.68;6.28;;;;;;;9.76;66.54;101245.09;10383846;28;20064;-64
2021/11/19 21:03:08;;;;;;;10.77;6.68;;;;;;;9.80;66.47;101245.81;10382981;28;20093;-65
2021/11/19 21:08:10;;;;;;;10.43;6.45;;;;;;;9.81;66.30;101234.47;10383527;28;20607;-65
2021/11/19 21:13:13;;;;;;;8.20;6.20;;;;;;;9.80;66.39;101235.38;10383029;28;20057;-65
2021/11/19 21:18:18;;;;;;;8.48;6.70;;;;;;;9.75;66.47;101225.06;10381483;28;20460;-65
2021/11/19 21:23:20;;;;;;;9.02;6.78;;;;;;;9.71;66.64;101236.53;10382716;28;20123;-65
2021/11/19 21:28:25;;;;;;;11.27;8.00;;;;;;;9.74;66.50;101235.59;10383544;28;20049;-65
2021/11/19 21:33:30;;;;;;;10.35;7.50;;;;;;;9.80;66.37;101232.75;10381788;28;20304;-64
2021/11/19 21:38:35;;;;;;;11.63;7.05;;;;;;;9.91;66.10;101241.91;10382044;28;20466;-65
2021/11/19 21:43:38;;;;;;;11.65;6.95;;;;;;;9.92;65.92;101243.63;10387353;28;20057;-65
2021/11/19 21:48:42;;;;;;;12.60;6.93;;;;;;;9.89;66.13;101246.34;10391133;28;20179;-65
2021/11/19 21:53:49;;;;;;;9.65;7.35;;;;;;;9.78;66.29;101232.81;10389827;28;20049;-65
2021/11/19 21:58:54;;;;;;;10.60;8.35;;;;;;;9.79;66.27;101236.28;10389945;28;20056;-64
2021/11/19 22:04:01;;;;;;;9.70;7.70;;;;;;;9.82;66.32;101236.16;10390222;28;20057;-64
2021/11/19 22:09:08;;;;;;;12.77;7.93;;;;;;;9.80;66.41;101227.53;10389648;28;20050;-64
2021/11/19 22:14:10;;;;;;;11.32;8.40;;;;;;;9.82;66.39;101233.56;10387698;28;20148;-64
2021/11/19 22:19:12;;;;;;;12.88;8.57;;;;;;;9.84;66.34;101234.34;10387686;28;20068;-63
2021/11/19 22:24:15;;;;;;;10.65;8.02;;;;;;;9.87;66.28;101231.63;10389727;28;20045;-63
2021/11/19 22:29:18;;;;;;;10.55;8.18;;;;;;;9.88;66.10;101231.56;10389349;28;20045;-63
2021/11/19 22:34:22;;;;;;;13.85;8.30;;;;;;;9.88;66.11;101226.34;10388321;28;20049;-63
2021/11/19 22:39:36;;;;;;;13.95;8.55;;;;;;;9.88;66.07;101228.09;10388953;28;20135;-64
2021/11/19 22:44:42;;;;;;;10.88;8.57;;;;;;;9.87;65.94;101222.03;10388135;28;20054;-63
2021/11/19 22:49:45;;;;;;;19.00;8.43;;;;;;;9.87;66.04;101226.41;10388043;28;20057;-63
2021/11/19 22:54:49;;;;;;;10.75;8.23;;;;;;;9.84;66.20;101223.91;10380032;28;20120;-64
2021/11/19 22:59:53;;;;;;;11.30;8.57;;;;;;;9.83;66.20;101211.75;10386491;28;20053;-63
2021/11/19 23:04:59;;;;;;;10.02;8.13;;;;;;;9.89;66.02;101214.16;10385647;28;20049;-64
2021/11/19 23:10:09;;;;;;;13.10;9.32;;;;;;;9.91;65.75;101212.31;10384662;28;20122;-64
2021/11/19 23:15:16;;;;;;;14.05;9.27;;;;;;;9.87;65.99;101214.19;10385712;28;20050;-64
2021/11/19 23:20:23;;;;;;;11.93;8.73;;;;;;;9.97;65.60;101218.16;10385540;28;20630;-64
2021/11/19 23:25:31;;;;;;;11.55;8.73;;;;;;;9.99;65.63;101218.13;10384651;28;20050;-62
2021/11/19 23:30:43;;;;;;;11.55;8.95;;;;;;;9.98;65.44;101221.63;10385362;28;20053;-65
2021/11/19 23:35:50;;;;;;;15.40;11.20;;;;;;;9.91;65.76;101220.16;10384531;28;20545;-64
2021/11/19 23:40:52;;;;;;;13.30;9.32;;;;;;;9.87;65.65;101222.03;10383524;28;20136;-65